createdAt,value
2023-12-23T00:01:16.647Z,4.80
2023-12-23T00:05:14.679Z,4.30
2023-12-23T00:09:12.564Z,5.40
2023-12-23T00:13:10.536Z,4.60
2023-12-23T00:17:08.624Z,3.90
2023-12-23T00:21:06.764Z,4.40
2023-12-23T00:25:04.561Z,4.00
2023-12-23T00:28:56.185Z,4.30
2023-12-23T00:32:54.570Z,5.60
2023-12-23T00:36:52.516Z,4.00
2023-12-23T00:40:51.822Z,3.60
2023-12-23T00:44:49.512Z,5.20
2023-12-23T00:48:47.609Z,4.30
2023-12-23T00:52:45.520Z,4.10
2023-12-23T00:56:43.574Z,4.70
2023-12-23T01:00:41.532Z,4.50
2023-12-23T01:04:39.548Z,3.90
2023-12-23T01:08:37.477Z,3.90
2023-12-23T01:12:35.536Z,4.60
2023-12-23T01:16:33.435Z,4.20
2023-12-23T01:20:31.500Z,4.30
2023-12-23T01:24:29.490Z,3.10
2023-12-23T01:28:27.492Z,3.80
2023-12-23T01:32:25.541Z,4.00
2023-12-23T01:36:23.545Z,4.10
2023-12-23T01:40:21.435Z,4.10
2023-12-23T01:44:19.531Z,4.00
2023-12-23T01:48:18.595Z,3.60
2023-12-23T01:52:17.443Z,3.80
2023-12-23T01:56:15.574Z,3.60
2023-12-23T02:00:13.476Z,5.30
2023-12-23T02:04:12.404Z,3.30
2023-12-23T02:08:10.499Z,3.90
2023-12-23T02:12:31.360Z,3.90
2023-12-23T02:16:29.409Z,4.80
2023-12-23T02:20:27.365Z,3.40
2023-12-23T02:24:25.446Z,4.20
2023-12-23T02:28:25.414Z,3.70
2023-12-23T02:32:25.401Z,3.90
2023-12-23T02:36:23.360Z,3.90
2023-12-23T02:40:21.363Z,3.40
2023-12-23T02:44:19.395Z,3.50
2023-12-23T02:48:17.392Z,3.20
2023-12-23T02:52:15.381Z,4.80
2023-12-23T02:56:13.387Z,3.50
2023-12-23T03:00:11.300Z,3.80
2023-12-23T03:04:09.381Z,3.40
2023-12-23T03:08:07.357Z,3.80
2023-12-23T03:12:05.332Z,4.10
2023-12-23T03:16:03.288Z,4.10
2023-12-23T03:20:03.343Z,3.70
2023-12-23T03:24:01.302Z,3.80
2023-12-23T03:27:59.310Z,3.50
2023-12-23T03:31:57.329Z,3.50
2023-12-23T03:35:55.282Z,3.20
2023-12-23T03:39:53.262Z,2.90
2023-12-23T03:43:52.319Z,2.70
2023-12-23T03:47:50.324Z,3.40
2023-12-23T03:51:48.267Z,3.20
2023-12-23T03:55:47.292Z,2.70
2023-12-23T03:59:45.267Z,4.00
2023-12-23T04:03:43.286Z,2.80
2023-12-23T04:07:41.381Z,2.60
2023-12-23T04:11:39.310Z,2.60
2023-12-23T04:15:37.242Z,3.10
2023-12-23T04:19:35.227Z,2.60
2023-12-23T04:23:33.273Z,2.60
2023-12-23T04:27:33.177Z,2.40
2023-12-23T04:31:32.344Z,2.70
2023-12-23T04:35:30.171Z,3.10
2023-12-23T04:39:28.235Z,3.90
2023-12-23T04:43:28.190Z,3.40
2023-12-23T04:47:26.203Z,3.10
2023-12-23T04:51:24.172Z,2.70
2023-12-23T04:55:22.202Z,2.80
2023-12-23T04:59:20.293Z,4.00
2023-12-23T05:03:18.219Z,3.50
2023-12-23T05:07:16.121Z,3.80
2023-12-23T05:11:14.262Z,3.10
2023-12-23T05:15:12.200Z,3.60
2023-12-23T05:19:10.322Z,3.50
2023-12-23T05:23:08.189Z,3.50
2023-12-23T05:27:06.123Z,3.10
2023-12-23T05:31:04.148Z,3.80
2023-12-23T05:35:02.257Z,3.10
2023-12-23T05:39:00.099Z,3.90
2023-12-23T05:42:58.145Z,2.70
2023-12-23T05:46:56.161Z,3.00
2023-12-23T05:50:54.104Z,3.20
2023-12-23T05:54:52.126Z,4.00
2023-12-23T05:58:50.177Z,2.60
2023-12-23T06:02:48.259Z,3.50
2023-12-23T06:06:46.089Z,2.70
2023-12-23T06:10:50.876Z,3.50
2023-12-23T06:14:56.060Z,3.10
2023-12-23T06:18:54.108Z,2.50
2023-12-23T06:22:52.471Z,4.20
2023-12-23T06:26:50.058Z,2.70
2023-12-23T06:30:48.144Z,3.30
2023-12-23T06:34:46.072Z,3.30
2023-12-23T06:38:44.099Z,3.50
2023-12-23T06:42:41.979Z,3.30
2023-12-23T06:46:40.088Z,3.20
2023-12-23T06:50:38.060Z,2.80
2023-12-23T06:54:36.045Z,3.00
2023-12-23T06:58:34.020Z,2.60
2023-12-23T07:02:32.034Z,4.00
2023-12-23T07:06:29.986Z,3.20
2023-12-23T07:10:28.076Z,3.00
2023-12-23T07:14:26.004Z,3.00
2023-12-23T07:18:24.373Z,2.90
2023-12-23T07:22:21.978Z,2.50
2023-12-23T07:26:21.106Z,2.10
2023-12-23T07:30:19.097Z,2.20
2023-12-23T07:34:17.033Z,3.60
2023-12-23T07:38:15.016Z,2.60
2023-12-23T07:42:12.981Z,2.40
2023-12-23T07:46:10.933Z,2.80
2023-12-23T07:50:08.995Z,2.90
2023-12-23T07:54:06.948Z,3.90
2023-12-23T07:58:04.973Z,3.70
2023-12-23T08:02:02.979Z,3.20
2023-12-23T08:06:01.083Z,2.40
2023-12-23T08:09:58.899Z,2.30
2023-12-23T08:13:56.942Z,2.50
2023-12-23T08:17:57.022Z,2.70
2023-12-23T08:21:54.888Z,2.80
2023-12-23T08:25:53.963Z,2.70
2023-12-23T08:29:51.944Z,2.90
2023-12-23T08:33:49.983Z,3.00
2023-12-23T08:37:48.080Z,3.00
2023-12-23T08:41:45.838Z,2.80
2023-12-23T08:45:43.909Z,2.70
2023-12-23T08:49:41.851Z,2.60
2023-12-23T08:53:39.892Z,3.50
2023-12-23T08:57:37.918Z,2.90
2023-12-23T09:01:35.821Z,3.50
2023-12-23T09:05:34.052Z,3.90
2023-12-23T09:09:31.831Z,3.00
2023-12-23T09:13:29.865Z,3.20
2023-12-23T09:17:29.600Z,2.90
2023-12-23T09:21:28.819Z,3.30
2023-12-23T09:25:26.889Z,3.70
2023-12-23T09:29:24.922Z,3.10
2023-12-23T09:33:23.059Z,3.20
2023-12-23T09:37:20.841Z,3.20
2023-12-23T09:41:20.040Z,3.10
2023-12-23T09:45:17.844Z,3.10
2023-12-23T09:49:15.909Z,3.30
2023-12-23T09:53:14.914Z,4.50
2023-12-23T09:57:12.789Z,3.70
2023-12-23T10:01:10.815Z,3.90
2023-12-23T10:05:09.877Z,4.30
2023-12-23T10:09:07.773Z,3.90
2023-12-23T10:13:05.777Z,4.00
2023-12-23T10:17:12.866Z,5.20
2023-12-23T10:21:10.798Z,4.30
2023-12-23T10:25:09.753Z,4.60
2023-12-23T10:29:13.782Z,4.90
2023-12-23T10:33:16.828Z,4.40
2023-12-23T10:37:14.921Z,4.50
2023-12-23T10:41:48.734Z,4.70
2023-12-23T10:45:46.731Z,3.90
2023-12-23T10:49:44.769Z,3.70
2023-12-23T10:53:42.757Z,3.70
2023-12-23T10:57:42.727Z,3.90
2023-12-23T11:01:43.817Z,3.60
2023-12-23T11:05:41.803Z,3.70
2023-12-23T11:09:41.713Z,3.70
2023-12-23T11:13:41.667Z,4.40
2023-12-23T11:17:39.755Z,4.40
2023-12-23T11:21:37.692Z,4.10
2023-12-23T11:25:51.688Z,3.30
2023-12-23T11:29:49.660Z,3.40
2023-12-23T11:33:49.850Z,4.00
2023-12-23T11:38:08.677Z,4.20
2023-12-23T11:42:06.697Z,4.80
2023-12-23T11:46:05.629Z,3.80
2023-12-23T11:50:03.691Z,3.70
2023-12-23T11:54:01.705Z,4.10
2023-12-23T11:57:59.616Z,4.70
2023-12-23T12:01:57.639Z,4.30
2023-12-23T12:05:55.714Z,4.70
2023-12-23T12:09:51.660Z,4.60
2023-12-23T12:13:15.693Z,3.90
2023-12-23T12:16:39.614Z,3.60
2023-12-23T12:20:04.066Z,3.90
2023-12-23T12:23:28.225Z,3.60
2023-12-23T12:26:54.144Z,3.10
2023-12-23T12:30:18.219Z,4.30
2023-12-23T12:33:44.002Z,4.60
2023-12-23T12:37:09.610Z,3.90
2023-12-23T12:40:36.821Z,3.30
2023-12-23T12:44:00.756Z,5.00
2023-12-23T12:47:27.582Z,6.40
2023-12-23T12:50:54.494Z,3.30
2023-12-23T12:54:20.096Z,4.10
2023-12-23T12:57:46.514Z,4.40
2023-12-23T13:01:10.517Z,3.60
2023-12-23T13:04:35.245Z,4.70
2023-12-23T13:08:00.029Z,4.50
2023-12-23T13:11:24.179Z,4.60
2023-12-23T13:14:48.154Z,4.10
2023-12-23T13:18:12.251Z,5.30
2023-12-23T13:21:36.287Z,4.10
2023-12-23T13:25:00.258Z,4.40
2023-12-23T13:28:24.479Z,4.10
2023-12-23T13:31:48.450Z,4.10
2023-12-23T13:35:12.478Z,5.70
2023-12-23T13:38:36.455Z,4.50
2023-12-23T13:42:00.614Z,5.60
2023-12-23T13:45:24.580Z,4.60
2023-12-23T13:48:48.585Z,5.30
2023-12-23T13:52:16.664Z,4.50
2023-12-23T13:55:40.546Z,4.60
2023-12-23T13:59:04.504Z,5.20
2023-12-23T14:02:28.514Z,5.10
2023-12-23T14:05:52.538Z,5.10
2023-12-23T14:09:16.538Z,5.20
2023-12-23T14:12:40.466Z,6.40
2023-12-23T14:16:05.446Z,5.70
2023-12-23T14:19:29.391Z,4.80
2023-12-23T14:22:55.080Z,5.80
2023-12-23T14:29:46.707Z,3.40
2023-12-23T14:33:14.690Z,2.50
2023-12-23T14:36:39.165Z,2.30
2023-12-23T14:40:03.271Z,2.60
2023-12-23T14:43:27.144Z,2.70
2023-12-23T14:46:51.068Z,4.30
2023-12-23T14:50:20.189Z,3.80
2023-12-23T14:53:45.899Z,3.40
2023-12-23T14:57:09.813Z,3.60
2023-12-23T15:00:35.070Z,3.60
2023-12-23T15:03:59.332Z,2.40
2023-12-23T15:07:24.702Z,3.70
2023-12-23T15:10:50.059Z,5.00
2023-12-23T15:14:14.066Z,3.40
2023-12-23T15:17:38.155Z,4.40
2023-12-23T15:21:02.516Z,4.00
2023-12-23T15:24:26.495Z,4.10
2023-12-23T15:27:50.309Z,5.20
2023-12-23T15:31:14.217Z,4.10
2023-12-23T15:34:38.110Z,4.60
2023-12-23T15:38:02.053Z,4.00
2023-12-23T15:41:26.418Z,6.10
2023-12-23T15:44:50.387Z,4.60
2023-12-23T15:48:14.569Z,4.80
2023-12-23T15:51:39.317Z,5.00
2023-12-23T15:55:04.631Z,6.10
2023-12-23T15:58:28.610Z,5.80
2023-12-23T16:01:52.470Z,6.10
2023-12-23T16:05:16.686Z,5.30
2023-12-23T16:08:40.555Z,6.10
2023-12-23T16:12:04.717Z,8.10
2023-12-23T16:15:28.602Z,8.70
2023-12-23T16:18:54.664Z,9.30
2023-12-23T16:22:18.576Z,6.60
2023-12-23T16:25:42.576Z,7.80
2023-12-23T16:29:06.847Z,6.90
2023-12-23T16:32:30.923Z,6.90
2023-12-23T16:35:54.911Z,7.20
2023-12-23T16:39:18.801Z,7.20
2023-12-23T16:42:42.803Z,7.50
2023-12-23T16:46:10.219Z,8.60
2023-12-23T16:49:41.355Z,8.40
2023-12-23T16:53:06.581Z,7.50
2023-12-23T16:56:30.652Z,8.80
2023-12-23T16:59:54.564Z,8.00
2023-12-23T17:03:18.868Z,8.60
2023-12-23T17:06:43.615Z,8.10
2023-12-23T17:10:07.947Z,7.80
2023-12-23T17:13:32.307Z,10.40
2023-12-23T17:16:56.287Z,10.60
2023-12-23T17:20:21.028Z,8.30
2023-12-23T17:23:45.278Z,8.30
2023-12-23T17:27:09.213Z,10.60
2023-12-23T17:30:33.303Z,7.90
2023-12-23T17:33:57.399Z,8.10
2023-12-23T17:37:21.389Z,8.60
2023-12-23T17:40:46.048Z,9.90
2023-12-23T17:44:10.180Z,8.90
2023-12-23T17:47:36.077Z,10.70
2023-12-23T17:51:00.060Z,7.80
2023-12-23T17:54:24.018Z,8.60
2023-12-23T17:57:48.733Z,8.70
2023-12-23T18:01:12.739Z,9.00
2023-12-23T18:04:36.580Z,10.50
2023-12-23T18:08:00.577Z,9.80
2023-12-23T18:11:24.777Z,9.80
2023-12-23T18:14:48.741Z,11.80
2023-12-23T18:18:12.911Z,9.50
2023-12-23T18:21:36.941Z,9.70
2023-12-23T18:25:00.787Z,10.30
2023-12-23T18:28:24.762Z,9.80
2023-12-23T18:31:48.670Z,9.80
2023-12-23T18:35:12.832Z,10.00
2023-12-23T18:38:36.849Z,11.40
2023-12-23T18:42:00.820Z,11.70
2023-12-23T18:45:24.753Z,9.60
2023-12-23T18:48:49.296Z,9.10
2023-12-23T18:52:13.254Z,8.70
2023-12-23T18:55:38.291Z,7.10
2023-12-23T18:59:05.696Z,6.10
2023-12-23T19:02:29.868Z,8.50
2023-12-23T19:05:53.933Z,8.50
2023-12-23T19:09:17.811Z,7.70
2023-12-23T19:12:41.592Z,8.50
2023-12-23T19:16:14.469Z,9.60
2023-12-23T19:19:38.337Z,12.30
2023-12-23T19:23:05.407Z,9.00
2023-12-23T19:26:29.896Z,9.10
2023-12-23T19:29:54.039Z,7.60
2023-12-23T19:33:17.910Z,8.90
2023-12-23T19:36:42.741Z,10.40
2023-12-23T19:40:10.491Z,7.30
2023-12-23T19:43:35.013Z,8.10
2023-12-23T19:46:59.071Z,7.20
2023-12-23T19:50:23.023Z,9.20
2023-12-23T19:53:47.019Z,9.20
2023-12-23T19:57:11.095Z,8.90
2023-12-23T20:00:35.368Z,7.30
2023-12-23T20:03:59.366Z,8.30
2023-12-23T20:07:23.248Z,7.80
2023-12-23T20:10:47.467Z,8.30
2023-12-23T20:14:11.325Z,7.00
2023-12-23T20:17:35.525Z,6.80
2023-12-23T20:21:00.001Z,6.10
2023-12-23T20:24:24.025Z,5.80
2023-12-23T20:27:47.930Z,5.70
2023-12-23T20:31:11.888Z,6.10
2023-12-23T20:34:35.728Z,6.10
2023-12-23T20:37:59.640Z,6.00
2023-12-23T20:41:23.597Z,6.30
2023-12-23T20:44:47.579Z,7.70
2023-12-23T20:48:11.457Z,8.30
2023-12-23T20:51:36.275Z,8.90
2023-12-23T20:55:00.327Z,6.70
2023-12-23T20:58:24.346Z,7.80
2023-12-23T21:01:49.661Z,8.40
2023-12-23T21:05:13.803Z,8.40
2023-12-23T21:08:38.258Z,8.40
2023-12-23T21:12:02.710Z,7.50
2023-12-23T21:15:28.399Z,9.10
2023-12-23T21:22:21.553Z,8.10
2023-12-23T21:25:46.595Z,10.90
2023-12-23T21:29:10.507Z,9.00
2023-12-23T21:32:34.594Z,9.10
2023-12-23T21:35:58.644Z,8.80
2023-12-23T21:39:22.489Z,9.40
2023-12-23T21:42:46.370Z,8.90
2023-12-23T21:46:10.192Z,8.20
2023-12-23T21:49:34.221Z,8.50
2023-12-23T21:52:58.177Z,9.50
2023-12-23T21:56:22.137Z,8.40
2023-12-23T21:59:46.024Z,9.40
2023-12-23T22:03:09.912Z,11.10
2023-12-23T22:06:34.337Z,10.00
2023-12-23T22:09:58.259Z,9.10
2023-12-23T22:13:22.074Z,9.70
2023-12-23T22:16:45.904Z,8.60
2023-12-23T22:20:10.596Z,9.70
2023-12-23T22:23:34.751Z,9.00
2023-12-23T22:26:58.763Z,10.40
2023-12-23T22:30:22.636Z,9.00
2023-12-23T22:33:46.579Z,10.80
2023-12-23T22:37:10.575Z,9.10
2023-12-23T22:40:34.403Z,7.30
2023-12-23T22:43:58.334Z,9.50
2023-12-23T22:47:22.312Z,8.60
2023-12-23T22:50:46.253Z,8.60
2023-12-23T22:54:10.192Z,8.10
2023-12-23T22:57:34.608Z,8.30
2023-12-23T23:00:58.509Z,7.70
2023-12-23T23:04:22.386Z,8.60
2023-12-23T23:07:46.401Z,8.00
2023-12-23T23:11:10.457Z,8.80
2023-12-23T23:14:36.621Z,9.20
2023-12-23T23:18:00.931Z,9.30
2023-12-23T23:21:25.857Z,9.40
2023-12-23T23:24:49.958Z,9.80
2023-12-23T23:28:14.031Z,8.20
2023-12-23T23:31:37.852Z,9.00
2023-12-23T23:35:08.433Z,8.90
2023-12-23T23:38:35.632Z,9.70
2023-12-23T23:41:59.468Z,9.40
2023-12-23T23:45:23.358Z,8.70
2023-12-23T23:48:47.253Z,8.80
2023-12-23T23:52:11.496Z,9.30
2023-12-23T23:55:35.403Z,7.80
2023-12-23T23:58:59.378Z,8.30
